Αρχική σελίδα
METAR-TAF:

METAR-TAF

Αεροδρόμια :

Πόλη του Κουβέιτ, Κουβέιτ

γεωγραφικό πλάτος: 29-13N, γεωγραφικό μήκος: 047-59E, υψόμετρο: 55 μ

Παρών καιρός

Η αναφορά έγινε 47 λεπτά πριν, στις 00:00 UTC
Άνεμος 6 kt από Β/BΔ
Θερμοκρασία 14°C
Υγρασία 77%
Πίεση 1022 hPa
Ορατότητα 10 χλμ και άνω
Δεν υπάρχουν νέφη με βάση κάτω από τα 1500 μ. και δεν υπάρχουν νέφη σωρειτομελανίτες.

METAR: OKBK 120000Z 33006KT CAVOK 14/10 Q1022 NOSIG

Χρόνος: 03:47 (00:47 UTC)

Πρόγνωση Καιρού

Η αναφορά έγινε 2 ώρες και 2 λεπτά πριν, στις 22:45 UTC
Η πρόγνωση ισχύει από τις 12 στις 00 UTC έως τις 13 στις 06 UTC
Άνεμος 10 kt από
Ορατότητα: 8000 μ
Καθαρός ουρανός
Καθιστάμενος
από 12 στις 12 UTC έως τις 12 στις 14 UTC
Άνεμος 3 kt από μεταβλητές κατευθύνσεις

TAF: OKBK 112245Z 1200/1306 32010KT 8000 SKC BECMG 1212/1214 VRB03KT

Μετεωρολογικές αναφορές και προγνώσεις για περισσότερα από 4000 αεροδρόμια (δελτία METAR και TAF).

Οι διαθέσιμοι σταθμοί απεικονίζονται στο χάρτη με κίτρινες και κόκκινες κουκκίδες.

Μετακινήστε το ποντίκι πάνω από τις κουκκίδες για να δείτε το όνομα του σταθμού.

Στη συνέχεια, κάντε κλικ για να δείτε τις μετεωρολογικές αναφορές και τις προγνώσεις καιρού.

Για να αλλάξετε το χάρτη: κάντε κλικ στα πράσινα κουμπιά με τον μαύρο σταυρό για να ζουμάρετε, στο πράσινο κουμπί με την παύλα για να αφαιρέσετε το ζουμ ή στα πράσινα βέλη για να αντιπαραβάλλετε χάρτες.


METAR-TAF: